sensor_id;sensor_type;location;lat;lon;timestamp;pressure;altitude;pressure_sealevel;temperature;humidity
15229;BME280;7717;47.792;12.076;2023-04-27T00:01:13;96224.31;;;6.29;100.00
15229;BME280;7717;47.792;12.076;2023-04-27T00:03:39;96225.09;;;6.25;100.00
15229;BME280;7717;47.792;12.076;2023-04-27T00:06:06;96228.50;;;6.24;100.00
15229;BME280;7717;47.792;12.076;2023-04-27T00:08:32;96215.84;;;6.28;100.00
15229;BME280;7717;47.792;12.076;2023-04-27T00:10:57;96208.88;;;6.13;100.00
15229;BME280;7717;47.792;12.076;2023-04-27T00:13:23;96220.84;;;6.21;100.00
15229;BME280;7717;47.792;12.076;2023-04-27T00:15:48;96199.59;;;6.17;100.00
15229;BME280;7717;47.792;12.076;2023-04-27T00:18:13;96212.91;;;5.98;100.00
15229;BME280;7717;47.792;12.076;2023-04-27T00:20:39;96218.81;;;5.98;100.00
15229;BME280;7717;47.792;12.076;2023-04-27T00:23:05;96213.31;;;6.30;100.00
15229;BME280;7717;47.792;12.076;2023-04-27T00:25:31;96209.97;;;6.34;100.00
15229;BME280;7717;47.792;12.076;2023-04-27T00:27:56;96206.66;;;6.40;100.00
15229;BME280;7717;47.792;12.076;2023-04-27T00:30:21;96204.16;;;6.43;100.00
15229;BME280;7717;47.792;12.076;2023-04-27T00:32:47;96189.78;;;6.46;100.00
15229;BME280;7717;47.792;12.076;2023-04-27T00:35:12;96202.59;;;6.54;100.00
15229;BME280;7717;47.792;12.076;2023-04-27T00:37:37;96196.69;;;6.57;100.00
15229;BME280;7717;47.792;12.076;2023-04-27T00:40:04;96195.03;;;6.62;100.00
15229;BME280;7717;47.792;12.076;2023-04-27T00:42:32;96186.53;;;6.58;100.00
15229;BME280;7717;47.792;12.076;2023-04-27T00:44:58;96191.56;;;6.54;100.00
15229;BME280;7717;47.792;12.076;2023-04-27T00:47:23;96185.59;;;6.53;100.00
15229;BME280;7717;47.792;12.076;2023-04-27T00:49:49;96192.44;;;6.57;100.00
15229;BME280;7717;47.792;12.076;2023-04-27T00:52:14;96191.63;;;6.58;100.00
15229;BME280;7717;47.792;12.076;2023-04-27T00:54:40;96186.38;;;6.44;100.00
15229;BME280;7717;47.792;12.076;2023-04-27T00:57:06;96189.00;;;6.52;100.00
15229;BME280;7717;47.792;12.076;2023-04-27T00:59:32;96189.81;;;6.49;100.00
15229;BME280;7717;47.792;12.076;2023-04-27T01:02:01;96189.88;;;6.56;100.00
15229;BME280;7717;47.792;12.076;2023-04-27T01:04:27;96195.66;;;6.41;100.00
15229;BME280;7717;47.792;12.076;2023-04-27T01:06:53;96187.28;;;6.51;100.00
15229;BME280;7717;47.792;12.076;2023-04-27T01:09:19;96192.53;;;6.65;100.00
15229;BME280;7717;47.792;12.076;2023-04-27T01:11:45;96193.41;;;6.69;100.00
15229;BME280;7717;47.792;12.076;2023-04-27T01:14:10;96182.50;;;6.77;100.00
15229;BME280;7717;47.792;12.076;2023-04-27T01:16:36;96195.25;;;6.82;100.00
15229;BME280;7717;47.792;12.076;2023-04-27T01:19:02;96198.34;;;6.55;100.00
15229;BME280;7717;47.792;12.076;2023-04-27T01:21:28;96184.13;;;6.71;100.00
15229;BME280;7717;47.792;12.076;2023-04-27T01:23:53;96190.19;;;6.83;100.00
15229;BME280;7717;47.792;12.076;2023-04-27T01:26:19;96189.38;;;6.86;100.00
15229;BME280;7717;47.792;12.076;2023-04-27T01:28:44;96191.09;;;6.90;100.00
15229;BME280;7717;47.792;12.076;2023-04-27T01:31:10;96197.16;;;7.06;100.00
15229;BME280;7717;47.792;12.076;2023-04-27T01:33:36;96182.78;;;7.07;100.00
15229;BME280;7717;47.792;12.076;2023-04-27T01:36:02;96181.97;;;7.15;100.00
15229;BME280;7717;47.792;12.076;2023-04-27T01:38:28;96195.50;;;7.07;100.00
15229;BME280;7717;47.792;12.076;2023-04-27T01:40:53;96194.84;;;7.31;100.00
15229;BME280;7717;47.792;12.076;2023-04-27T01:43:26;96184.28;;;6.84;100.00
15229;BME280;7717;47.792;12.076;2023-04-27T01:45:52;96183.53;;;6.99;100.00
15229;BME280;7717;47.792;12.076;2023-04-27T01:48:17;96184.53;;;7.17;100.00
15229;BME280;7717;47.792;12.076;2023-04-27T01:50:42;96198.91;;;7.10;100.00
15229;BME280;7717;47.792;12.076;2023-04-27T01:53:07;96198.16;;;7.20;100.00
15229;BME280;7717;47.792;12.076;2023-04-27T01:55:33;96187.22;;;7.31;100.00
15229;BME280;7717;47.792;12.076;2023-04-27T01:57:58;96196.63;;;7.38;100.00
15229;BME280;7717;47.792;12.076;2023-04-27T02:00:24;96199.09;;;7.29;100.00
15229;BME280;7717;47.792;12.076;2023-04-27T02:02:49;96206.72;;;7.27;100.00
15229;BME280;7717;47.792;12.076;2023-04-27T02:05:18;96199.91;;;7.26;100.00
15229;BME280;7717;47.792;12.076;2023-04-27T02:07:43;96207.47;;;7.18;100.00
15229;BME280;7717;47.792;12.076;2023-04-27T02:10:08;96205.88;;;7.27;100.00
15229;BME280;7717;47.792;12.076;2023-04-27T02:12:34;96225.34;;;7.25;100.00
15229;BME280;7717;47.792;12.076;2023-04-27T02:14:59;96214.38;;;7.30;100.00
15229;BME280;7717;47.792;12.076;2023-04-27T02:17:25;96217.00;;;7.41;100.00
15229;BME280;7717;47.792;12.076;2023-04-27T02:19:50;96212.63;;;7.28;100.00
15229;BME280;7717;47.792;12.076;2023-04-27T02:22:16;96222.81;;;7.28;100.00
15229;BME280;7717;47.792;12.076;2023-04-27T02:24:41;96228.03;;;7.40;100.00
15229;BME280;7717;47.792;12.076;2023-04-27T02:27:07;96228.00;;;7.38;100.00
15229;BME280;7717;47.792;12.076;2023-04-27T02:29:32;96229.81;;;7.50;100.00
15229;BME280;7717;47.792;12.076;2023-04-27T02:31:57;96228.03;;;7.40;100.00
15229;BME280;7717;47.792;12.076;2023-04-27T02:34:23;96226.31;;;7.39;100.00
15229;BME280;7717;47.792;12.076;2023-04-27T02:36:48;96224.75;;;7.52;100.00
15229;BME280;7717;47.792;12.076;2023-04-27T02:39:13;96219.66;;;7.52;100.00
15229;BME280;7717;47.792;12.076;2023-04-27T02:41:39;96240.78;;;7.43;100.00
15229;BME280;7717;47.792;12.076;2023-04-27T02:44:04;96236.59;;;7.51;100.00
15229;BME280;7717;47.792;12.076;2023-04-27T02:46:30;96234.13;;;7.62;100.00
15229;BME280;7717;47.792;12.076;2023-04-27T02:48:55;96230.63;;;7.48;100.00
15229;BME280;7717;47.792;12.076;2023-04-27T02:51:20;96221.28;;;7.48;100.00
15229;BME280;7717;47.792;12.076;2023-04-27T02:53:46;96234.00;;;7.44;100.00
15229;BME280;7717;47.792;12.076;2023-04-27T02:56:12;96233.09;;;7.38;100.00
15229;BME280;7717;47.792;12.076;2023-04-27T02:58:37;96245.19;;;7.60;100.00
15229;BME280;7717;47.792;12.076;2023-04-27T03:01:02;96229.00;;;7.57;100.00
15229;BME280;7717;47.792;12.076;2023-04-27T03:03:28;96233.28;;;7.59;100.00
15229;BME280;7717;47.792;12.076;2023-04-27T03:05:54;96228.22;;;7.65;100.00
15229;BME280;7717;47.792;12.076;2023-04-27T03:08:19;96230.81;;;7.68;100.00
15229;BME280;7717;47.792;12.076;2023-04-27T03:10:44;96232.47;;;7.63;100.00
15229;BME280;7717;47.792;12.076;2023-04-27T03:13:10;96235.84;;;7.60;100.00
15229;BME280;7717;47.792;12.076;2023-04-27T03:15:35;96240.06;;;7.56;100.00
15229;BME280;7717;47.792;12.076;2023-04-27T03:18:01;96243.88;;;7.08;100.00
15229;BME280;7717;47.792;12.076;2023-04-27T03:20:26;96238.00;;;7.18;100.00
15229;BME280;7717;47.792;12.076;2023-04-27T03:22:51;96233.09;;;7.37;100.00
15229;BME280;7717;47.792;12.076;2023-04-27T03:25:17;96236.50;;;7.41;100.00
15229;BME280;7717;47.792;12.076;2023-04-27T03:27:42;96244.16;;;7.42;100.00
15229;BME280;7717;47.792;12.076;2023-04-27T03:30:08;96250.91;;;7.37;100.00
15229;BME280;7717;47.792;12.076;2023-04-27T03:32:34;96241.63;;;7.42;100.00
15229;BME280;7717;47.792;12.076;2023-04-27T03:34:59;96249.38;;;7.56;100.00
15229;BME280;7717;47.792;12.076;2023-04-27T03:37:25;96247.44;;;7.29;100.00
15229;BME280;7717;47.792;12.076;2023-04-27T03:39:51;96250.03;;;7.32;100.00
15229;BME280;7717;47.792;12.076;2023-04-27T03:42:16;96252.97;;;6.86;100.00
15229;BME280;7717;47.792;12.076;2023-04-27T03:44:42;96270.00;;;6.95;100.00
15229;BME280;7717;47.792;12.076;2023-04-27T03:47:07;96254.06;;;7.10;100.00
15229;BME280;7717;47.792;12.076;2023-04-27T03:49:36;96250.00;;;7.29;100.00
15229;BME280;7717;47.792;12.076;2023-04-27T03:52:02;96252.47;;;7.19;100.00
15229;BME280;7717;47.792;12.076;2023-04-27T03:54:29;96264.38;;;7.22;100.00
15229;BME280;7717;47.792;12.076;2023-04-27T03:56:55;96257.56;;;7.23;100.00
15229;BME280;7717;47.792;12.076;2023-04-27T03:59:20;96255.75;;;7.11;100.00
15229;BME280;7717;47.792;12.076;2023-04-27T04:01:46;96265.06;;;7.09;100.00
15229;BME280;7717;47.792;12.076;2023-04-27T04:04:11;96278.78;;;7.21;100.00
15229;BME280;7717;47.792;12.076;2023-04-27T04:06:36;96282.88;;;7.07;100.00
15229;BME280;7717;47.792;12.076;2023-04-27T04:09:05;96283.97;;;7.32;100.00
15229;BME280;7717;47.792;12.076;2023-04-27T04:11:30;96283.19;;;7.39;100.00
15229;BME280;7717;47.792;12.076;2023-04-27T04:13:56;96279.81;;;7.44;100.00
15229;BME280;7717;47.792;12.076;2023-04-27T04:16:21;96279.94;;;7.56;100.00
15229;BME280;7717;47.792;12.076;2023-04-27T04:18:47;96276.47;;;7.46;100.00
15229;BME280;7717;47.792;12.076;2023-04-27T04:21:12;96286.66;;;7.46;100.00
15229;BME280;7717;47.792;12.076;2023-04-27T04:23:38;96294.31;;;7.49;100.00
15229;BME280;7717;47.792;12.076;2023-04-27T04:26:05;96288.56;;;7.67;100.00
15229;BME280;7717;47.792;12.076;2023-04-27T04:28:31;96291.84;;;7.57;100.00
15229;BME280;7717;47.792;12.076;2023-04-27T04:30:56;96301.25;;;7.63;100.00
15229;BME280;7717;47.792;12.076;2023-04-27T04:33:23;96297.81;;;7.62;100.00
15229;BME280;7717;47.792;12.076;2023-04-27T04:35:48;96297.16;;;7.82;100.00
15229;BME280;7717;47.792;12.076;2023-04-27T04:38:13;96305.72;;;7.93;100.00
15229;BME280;7717;47.792;12.076;2023-04-27T04:40:39;96311.47;;;7.67;100.00
15229;BME280;7717;47.792;12.076;2023-04-27T04:43:05;96300.72;;;8.04;100.00
15229;BME280;7717;47.792;12.076;2023-04-27T04:45:31;96311.88;;;8.21;100.00
15229;BME280;7717;47.792;12.076;2023-04-27T04:47:56;96316.06;;;8.10;100.00
15229;BME280;7717;47.792;12.076;2023-04-27T04:50:22;96312.63;;;8.11;100.00
15229;BME280;7717;47.792;12.076;2023-04-27T04:52:48;96321.28;;;8.28;100.00
15229;BME280;7717;47.792;12.076;2023-04-27T04:55:13;96323.03;;;8.39;100.00
15229;BME280;7717;47.792;12.076;2023-04-27T04:57:39;96320.47;;;8.40;100.00
15229;BME280;7717;47.792;12.076;2023-04-27T05:00:05;96323.97;;;8.47;100.00
15229;BME280;7717;47.792;12.076;2023-04-27T05:02:38;96325.66;;;8.45;100.00
15229;BME280;7717;47.792;12.076;2023-04-27T05:05:04;96323.75;;;8.19;100.00
15229;BME280;7717;47.792;12.076;2023-04-27T05:07:29;96325.66;;;8.45;100.00
15229;BME280;7717;47.792;12.076;2023-04-27T05:09:55;96325.72;;;8.57;100.00
15229;BME280;7717;47.792;12.076;2023-04-27T05:12:20;96317.31;;;8.71;100.00
15229;BME280;7717;47.792;12.076;2023-04-27T05:14:46;96318.22;;;8.85;100.00
15229;BME280;7717;47.792;12.076;2023-04-27T05:17:12;96318.16;;;8.74;100.00
15229;BME280;7717;47.792;12.076;2023-04-27T05:19:37;96310.47;;;8.67;100.00
15229;BME280;7717;47.792;12.076;2023-04-27T05:22:03;96318.25;;;8.94;100.00
15229;BME280;7717;47.792;12.076;2023-04-27T05:24:28;96315.75;;;9.07;100.00
15229;BME280;7717;47.792;12.076;2023-04-27T05:26:53;96312.34;;;9.15;100.00
15229;BME280;7717;47.792;12.076;2023-04-27T05:29:20;96317.53;;;9.39;100.00
15229;BME280;7717;47.792;12.076;2023-04-27T05:31:45;96316.72;;;9.60;100.00
15229;BME280;7717;47.792;12.076;2023-04-27T05:34:11;96315.88;;;9.84;100.00
15229;BME280;7717;47.792;12.076;2023-04-27T05:36:37;96316.72;;;10.04;100.00
15229;BME280;7717;47.792;12.076;2023-04-27T05:39:03;96314.16;;;10.14;100.00
15229;BME280;7717;47.792;12.076;2023-04-27T05:41:29;96305.63;;;10.30;100.00
15229;BME280;7717;47.792;12.076;2023-04-27T05:43:54;96313.31;;;10.13;100.00
15229;BME280;7717;47.792;12.076;2023-04-27T05:46:20;96303.06;;;10.30;100.00
15229;BME280;7717;47.792;12.076;2023-04-27T05:48:45;96308.19;;;10.42;100.00
15229;BME280;7717;47.792;12.076;2023-04-27T05:51:11;96293.69;;;10.23;100.00
15229;BME280;7717;47.792;12.076;2023-04-27T05:53:37;96297.97;;;10.46;100.00
15229;BME280;7717;47.792;12.076;2023-04-27T05:56:02;96280.81;;;10.68;100.00
15229;BME280;7717;47.792;12.076;2023-04-27T05:58:30;96286.66;;;11.05;100.00
15229;BME280;7717;47.792;12.076;2023-04-27T06:00:56;96287.44;;;11.16;100.00
15229;BME280;7717;47.792;12.076;2023-04-27T06:03:21;96287.25;;;11.49;100.00
15229;BME280;7717;47.792;12.076;2023-04-27T06:09:09;96305.16;;;11.55;100.00
15229;BME280;7717;47.792;12.076;2023-04-27T06:11:34;96313.88;;;11.19;100.00
15229;BME280;7717;47.792;12.076;2023-04-27T06:14:00;96320.72;;;11.21;100.00
15229;BME280;7717;47.792;12.076;2023-04-27T06:16:25;96310.31;;;11.47;100.00
15229;BME280;7717;47.792;12.076;2023-04-27T06:18:51;96311.72;;;11.92;100.00
15229;BME280;7717;47.792;12.076;2023-04-27T06:21:16;96310.88;;;11.89;100.00
15229;BME280;7717;47.792;12.076;2023-04-27T06:23:42;96308.47;;;11.71;100.00
15229;BME280;7717;47.792;12.076;2023-04-27T06:26:07;96307.78;;;11.46;100.00
15229;BME280;7717;47.792;12.076;2023-04-27T06:28:33;96313.84;;;11.28;100.00
15229;BME280;7717;47.792;12.076;2023-04-27T06:30:58;96320.53;;;11.53;100.00
15229;BME280;7717;47.792;12.076;2023-04-27T06:33:23;96317.94;;;11.60;100.00
15229;BME280;7717;47.792;12.076;2023-04-27T06:35:49;96318.56;;;11.91;100.00
15229;BME280;7717;47.792;12.076;2023-04-27T06:38:14;96303.78;;;12.26;100.00
15229;BME280;7717;47.792;12.076;2023-04-27T06:40:40;96322.53;;;12.32;100.00
15229;BME280;7717;47.792;12.076;2023-04-27T06:43:06;96320.22;;;12.03;100.00
15229;BME280;7717;47.792;12.076;2023-04-27T06:45:31;96321.63;;;12.38;100.00
15229;BME280;7717;47.792;12.076;2023-04-27T06:47:56;96309.34;;;12.68;100.00
15229;BME280;7717;47.792;12.076;2023-04-27T06:50:22;96310.53;;;13.12;100.00
15229;BME280;7717;47.792;12.076;2023-04-27T06:52:47;96313.31;;;12.93;100.00
15229;BME280;7717;47.792;12.076;2023-04-27T06:55:13;96316.94;;;13.47;100.00
15229;BME280;7717;47.792;12.076;2023-04-27T06:57:38;96318.00;;;13.93;100.00
15229;BME280;7717;47.792;12.076;2023-04-27T07:00:04;96317.63;;;14.16;100.00
15229;BME280;7717;47.792;12.076;2023-04-27T07:02:30;96323.81;;;14.04;100.00
15229;BME280;7717;47.792;12.076;2023-04-27T07:04:55;96313.69;;;13.95;100.00
15229;BME280;7717;47.792;12.076;2023-04-27T07:07:21;96327.75;;;14.25;100.00
15229;BME280;7717;47.792;12.076;2023-04-27T07:09:46;96324.03;;;14.43;100.00
15229;BME280;7717;47.792;12.076;2023-04-27T07:12:11;96328.91;;;14.07;100.00
15229;BME280;7717;47.792;12.076;2023-04-27T07:14:37;96320.03;;;14.75;100.00
15229;BME280;7717;47.792;12.076;2023-04-27T07:17:02;96320.91;;;15.19;100.00
15229;BME280;7717;47.792;12.076;2023-04-27T07:19:27;96305.34;;;14.32;100.00
15229;BME280;7717;47.792;12.076;2023-04-27T07:21:53;96317.75;;;14.58;100.00
15229;BME280;7717;47.792;12.076;2023-04-27T07:24:18;96313.47;;;14.60;100.00
15229;BME280;7717;47.792;12.076;2023-04-27T07:26:44;96307.41;;;14.59;98.82
15229;BME280;7717;47.792;12.076;2023-04-27T07:29:10;96315.91;;;14.66;100.00
15229;BME280;7717;47.792;12.076;2023-04-27T07:31:37;96320.09;;;15.16;100.00
15229;BME280;7717;47.792;12.076;2023-04-27T07:34:02;96318.41;;;15.55;100.00
15229;BME280;7717;47.792;12.076;2023-04-27T07:36:28;96314.56;;;14.44;100.00
15229;BME280;7717;47.792;12.076;2023-04-27T07:38:53;96320.28;;;14.61;100.00
15229;BME280;7717;47.792;12.076;2023-04-27T07:41:18;96325.91;;;14.33;100.00
15229;BME280;7717;47.792;12.076;2023-04-27T07:43:44;96322.31;;;14.42;99.16
15229;BME280;7717;47.792;12.076;2023-04-27T07:46:09;96323.94;;;15.38;100.00
15229;BME280;7717;47.792;12.076;2023-04-27T07:48:35;96314.69;;;15.67;100.00
15229;BME280;7717;47.792;12.076;2023-04-27T07:51:01;96314.16;;;15.92;98.04
15229;BME280;7717;47.792;12.076;2023-04-27T07:53:26;96330.66;;;15.45;98.35
15229;BME280;7717;47.792;12.076;2023-04-27T07:55:52;96272.50;;;16.07;91.44
15229;BME280;7717;47.792;12.076;2023-04-27T07:58:17;96302.50;;;16.13;95.55
15229;BME280;7717;47.792;12.076;2023-04-27T08:00:44;96321.72;;;15.99;97.89
15229;BME280;7717;47.792;12.076;2023-04-27T08:03:10;96304.50;;;15.61;94.35
15229;BME280;7717;47.792;12.076;2023-04-27T08:05:35;96319.91;;;16.03;96.80
15229;BME280;7717;47.792;12.076;2023-04-27T08:08:01;96304.03;;;16.53;94.50
15229;BME280;7717;47.792;12.076;2023-04-27T08:10:26;96308.72;;;16.04;92.35
15229;BME280;7717;47.792;12.076;2023-04-27T08:12:52;96314.44;;;15.79;94.80
15229;BME280;7717;47.792;12.076;2023-04-27T08:15:17;96340.44;;;15.70;94.09
15229;BME280;7717;47.792;12.076;2023-04-27T08:17:42;96325.16;;;15.61;92.63
15229;BME280;7717;47.792;12.076;2023-04-27T08:20:09;96331.78;;;16.46;95.46
15229;BME280;7717;47.792;12.076;2023-04-27T08:22:40;96323.84;;;16.19;93.75
15229;BME280;7717;47.792;12.076;2023-04-27T08:25:07;96321.94;;;15.90;93.77
15229;BME280;7717;47.792;12.076;2023-04-27T08:27:36;96328.88;;;15.88;94.53
15229;BME280;7717;47.792;12.076;2023-04-27T08:30:02;96335.41;;;17.05;94.52
15229;BME280;7717;47.792;12.076;2023-04-27T08:32:27;96307.50;;;16.86;90.15
15229;BME280;7717;47.792;12.076;2023-04-27T08:34:52;96310.75;;;16.93;88.98
15229;BME280;7717;47.792;12.076;2023-04-27T08:37:18;96349.66;;;16.88;93.33
15229;BME280;7717;47.792;12.076;2023-04-27T08:39:43;96297.47;;;16.41;88.53
15229;BME280;7717;47.792;12.076;2023-04-27T08:42:12;96325.78;;;17.10;92.96
15229;BME280;7717;47.792;12.076;2023-04-27T08:44:39;96299.19;;;17.05;89.30
15229;BME280;7717;47.792;12.076;2023-04-27T08:47:05;96334.31;;;18.28;94.40
15229;BME280;7717;47.792;12.076;2023-04-27T08:49:31;96306.34;;;17.83;88.87
15229;BME280;7717;47.792;12.076;2023-04-27T08:51:56;96347.66;;;17.30;90.70
15229;BME280;7717;47.792;12.076;2023-04-27T08:54:21;96342.03;;;17.15;90.25
15229;BME280;7717;47.792;12.076;2023-04-27T08:56:47;96318.75;;;17.15;89.45
15229;BME280;7717;47.792;12.076;2023-04-27T08:59:13;96309.59;;;19.19;88.36
15229;BME280;7717;47.792;12.076;2023-04-27T09:01:45;96250.56;;;19.70;82.17
15229;BME280;7717;47.792;12.076;2023-04-27T09:04:12;96275.00;;;19.64;83.94
15229;BME280;7717;47.792;12.076;2023-04-27T09:06:38;96285.81;;;19.08;82.70
15229;BME280;7717;47.792;12.076;2023-04-27T09:09:03;96304.44;;;18.68;83.90
15229;BME280;7717;47.792;12.076;2023-04-27T09:11:34;96213.16;;;19.08;77.81
15229;BME280;7717;47.792;12.076;2023-04-27T09:14:02;96242.13;;;20.69;81.30
15229;BME280;7717;47.792;12.076;2023-04-27T09:16:29;96282.13;;;19.37;82.58
15229;BME280;7717;47.792;12.076;2023-04-27T09:18:57;96270.03;;;20.04;81.87
15229;BME280;7717;47.792;12.076;2023-04-27T09:21:29;96223.19;;;19.61;76.74
15229;BME280;7717;47.792;12.076;2023-04-27T09:24:08;96170.06;;;20.31;74.87
15229;BME280;7717;47.792;12.076;2023-04-27T09:26:36;96345.09;;;19.88;86.16
15229;BME280;7717;47.792;12.076;2023-04-27T09:29:01;96363.63;;;19.55;89.19
15229;BME280;7717;47.792;12.076;2023-04-27T09:31:34;96181.09;;;20.57;75.13
15229;BME280;7717;47.792;12.076;2023-04-27T09:34:00;96264.75;;;20.05;81.19
15229;BME280;7717;47.792;12.076;2023-04-27T09:36:25;96209.63;;;19.54;76.43
15229;BME280;7717;47.792;12.076;2023-04-27T09:38:51;96348.81;;;19.58;85.35
15229;BME280;7717;47.792;12.076;2023-04-27T09:41:17;96375.56;;;19.13;87.72
15229;BME280;7717;47.792;12.076;2023-04-27T09:43:43;96351.84;;;19.70;86.62
15229;BME280;7717;47.792;12.076;2023-04-27T09:46:13;96317.53;;;20.48;84.51
15229;BME280;7717;47.792;12.076;2023-04-27T09:48:39;96258.16;;;20.80;79.32
15229;BME280;7717;47.792;12.076;2023-04-27T09:51:05;96221.53;;;21.04;76.69
15229;BME280;7717;47.792;12.076;2023-04-27T09:53:44;96268.63;;;21.36;80.03
15229;BME280;7717;47.792;12.076;2023-04-27T10:01:46;96235.78;;;22.92;77.35
15229;BME280;7717;47.792;12.076;2023-04-27T10:07:08;96159.44;;;22.04;70.66
15229;BME280;7717;47.792;12.076;2023-04-27T10:09:40;96141.88;;;21.90;70.69
15229;BME280;7717;47.792;12.076;2023-04-27T10:12:26;96163.50;;;22.61;71.27
15229;BME280;7717;47.792;12.076;2023-04-27T10:17:17;96131.91;;;21.46;68.57
15229;BME280;7717;47.792;12.076;2023-04-27T10:19:54;96149.75;;;22.41;69.84
15229;BME280;7717;47.792;12.076;2023-04-27T10:22:20;96262.22;;;21.99;76.41
15229;BME280;7717;47.792;12.076;2023-04-27T10:24:48;96229.88;;;21.85;74.90
15229;BME280;7717;47.792;12.076;2023-04-27T10:27:16;96190.03;;;20.91;71.21
15229;BME280;7717;47.792;12.076;2023-04-27T10:29:47;96295.22;;;19.80;78.06
15229;BME280;7717;47.792;12.076;2023-04-27T10:32:24;96224.03;;;20.06;73.70
15229;BME280;7717;47.792;12.076;2023-04-27T10:35:07;96139.91;;;20.08;69.00
15229;BME280;7717;47.792;12.076;2023-04-27T10:37:41;96200.31;;;20.13;72.51
15229;BME280;7717;47.792;12.076;2023-04-27T10:40:11;96255.78;;;20.12;76.04
15229;BME280;7717;47.792;12.076;2023-04-27T10:42:44;96305.06;;;19.48;80.38
15229;BME280;7717;47.792;12.076;2023-04-27T10:45:11;96344.00;;;19.71;83.07
15229;BME280;7717;47.792;12.076;2023-04-27T10:47:42;96293.84;;;19.93;79.42
15229;BME280;7717;47.792;12.076;2023-04-27T10:50:09;96341.31;;;18.77;83.47
15229;BME280;7717;47.792;12.076;2023-04-27T10:52:42;96278.84;;;18.84;78.72
15229;BME280;7717;47.792;12.076;2023-04-27T10:55:18;96237.81;;;19.19;76.35
15229;BME280;7717;47.792;12.076;2023-04-27T10:57:49;96231.41;;;19.28;75.84
15229;BME280;7717;47.792;12.076;2023-04-27T11:00:24;96161.44;;;20.31;70.91
15229;BME280;7717;47.792;12.076;2023-04-27T11:02:52;96279.59;;;20.24;79.32
15229;BME280;7717;47.792;12.076;2023-04-27T11:05:19;96277.63;;;20.08;79.51
15229;BME280;7717;47.792;12.076;2023-04-27T11:07:45;96217.75;;;19.67;74.99
15229;BME280;7717;47.792;12.076;2023-04-27T11:10:17;96329.25;;;19.72;81.55
15229;BME280;7717;47.792;12.076;2023-04-27T11:12:44;96304.78;;;20.22;80.62
15229;BME280;7717;47.792;12.076;2023-04-27T11:15:09;96288.00;;;19.64;79.07
15229;BME280;7717;47.792;12.076;2023-04-27T11:17:36;96320.78;;;18.97;82.67
15229;BME280;7717;47.792;12.076;2023-04-27T11:20:01;96271.34;;;18.51;77.55
15229;BME280;7717;47.792;12.076;2023-04-27T11:22:29;96268.22;;;18.42;77.29
15229;BME280;7717;47.792;12.076;2023-04-27T11:24:54;96318.03;;;17.98;80.14
15229;BME280;7717;47.792;12.076;2023-04-27T11:27:20;96336.03;;;18.55;81.68
15229;BME280;7717;47.792;12.076;2023-04-27T11:29:47;96324.66;;;18.07;81.31
15229;BME280;7717;47.792;12.076;2023-04-27T11:32:22;96206.00;;;19.36;73.09
15229;BME280;7717;47.792;12.076;2023-04-27T11:34:50;96150.94;;;19.28;69.37
15229;BME280;7717;47.792;12.076;2023-04-27T11:37:24;96194.72;;;19.82;71.82
15229;BME280;7717;47.792;12.076;2023-04-27T11:39:53;96281.16;;;19.16;77.80
15229;BME280;7717;47.792;12.076;2023-04-27T11:42:27;96268.94;;;19.87;76.91
15229;BME280;7717;47.792;12.076;2023-04-27T11:47:25;96246.38;;;20.10;75.82
15229;BME280;7717;47.792;12.076;2023-04-27T11:49:58;96204.44;;;19.97;72.39
15229;BME280;7717;47.792;12.076;2023-04-27T11:52:28;96272.66;;;19.82;76.82
15229;BME280;7717;47.792;12.076;2023-04-27T11:54:54;96251.53;;;18.74;75.21
15229;BME280;7717;47.792;12.076;2023-04-27T11:57:29;96284.13;;;18.56;75.80
15229;BME280;7717;47.792;12.076;2023-04-27T11:59:56;96291.00;;;19.08;77.07
15229;BME280;7717;47.792;12.076;2023-04-27T12:02:22;96292.53;;;18.90;76.95
15229;BME280;7717;47.792;12.076;2023-04-27T12:04:48;96273.19;;;18.48;75.29
15229;BME280;7717;47.792;12.076;2023-04-27T12:07:14;96300.31;;;18.90;77.66
15229;BME280;7717;47.792;12.076;2023-04-27T12:09:39;96323.59;;;18.64;78.48
15229;BME280;7717;47.792;12.076;2023-04-27T12:12:05;96279.72;;;18.85;76.74
15229;BME280;7717;47.792;12.076;2023-04-27T12:14:30;96346.66;;;18.72;80.62
15229;BME280;7717;47.792;12.076;2023-04-27T12:16:56;96329.94;;;18.30;78.89
15229;BME280;7717;47.792;12.076;2023-04-27T12:19:21;96292.28;;;18.45;77.19
15229;BME280;7717;47.792;12.076;2023-04-27T12:21:49;96251.13;;;18.11;73.52
15229;BME280;7717;47.792;12.076;2023-04-27T12:24:15;96280.34;;;18.41;75.33
15229;BME280;7717;47.792;12.076;2023-04-27T12:26:40;96245.13;;;19.32;74.58
15229;BME280;7717;47.792;12.076;2023-04-27T12:29:06;96283.56;;;19.90;76.95
15229;BME280;7717;47.792;12.076;2023-04-27T12:31:31;96186.06;;;19.81;70.08
15229;BME280;7717;47.792;12.076;2023-04-27T12:33:57;96204.25;;;19.81;71.45
15229;BME280;7717;47.792;12.076;2023-04-27T12:36:23;96282.72;;;19.43;76.78
15229;BME280;7717;47.792;12.076;2023-04-27T12:38:48;96296.81;;;19.60;77.25
15229;BME280;7717;47.792;12.076;2023-04-27T12:41:14;96315.38;;;18.77;77.82
15229;BME280;7717;47.792;12.076;2023-04-27T12:43:39;96283.28;;;18.81;76.57
15229;BME280;7717;47.792;12.076;2023-04-27T12:46:05;96301.59;;;19.01;77.13
15229;BME280;7717;47.792;12.076;2023-04-27T12:48:30;96274.03;;;19.45;75.17
15229;BME280;7717;47.792;12.076;2023-04-27T12:50:57;96330.28;;;19.20;79.33
15229;BME280;7717;47.792;12.076;2023-04-27T12:53:23;96327.25;;;18.07;79.14
15229;BME280;7717;47.792;12.076;2023-04-27T12:55:48;96330.41;;;17.60;78.66
15229;BME280;7717;47.792;12.076;2023-04-27T12:58:13;96367.47;;;17.31;82.32
15229;BME280;7717;47.792;12.076;2023-04-27T13:00:39;96351.75;;;17.07;81.41
15229;BME280;7717;47.792;12.076;2023-04-27T13:03:06;96353.88;;;16.93;81.70
15229;BME280;7717;47.792;12.076;2023-04-27T13:05:31;96309.41;;;16.45;76.62
15229;BME280;7717;47.792;12.076;2023-04-27T13:08:00;96295.38;;;16.55;76.89
15229;BME280;7717;47.792;12.076;2023-04-27T13:10:27;96361.53;;;16.61;81.49